createdAt,value
2023-03-25T00:00:19.368Z,5.68
2023-03-25T00:02:52.692Z,3.67
2023-03-25T00:05:21.979Z,5.10
2023-03-25T00:07:53.007Z,9.13
2023-03-25T00:10:20.962Z,5.82
2023-03-25T00:12:48.759Z,3.90
2023-03-25T00:15:16.683Z,6.95
2023-03-25T00:17:44.973Z,5.20
2023-03-25T00:20:14.336Z,5.18
2023-03-25T00:22:44.905Z,6.07
2023-03-25T00:25:18.030Z,5.38
2023-03-25T00:27:47.250Z,5.65
2023-03-25T00:30:16.355Z,4.97
2023-03-25T00:32:53.371Z,6.55
2023-03-25T00:35:22.538Z,4.85
2023-03-25T00:38:00.632Z,9.98
2023-03-25T00:40:35.177Z,5.28
2023-03-25T00:43:04.590Z,7.45
2023-03-25T00:45:32.841Z,7.72
2023-03-25T00:48:00.937Z,4.00
2023-03-25T00:50:28.742Z,5.47
2023-03-25T00:52:56.572Z,5.32
2023-03-25T00:55:24.476Z,5.75
2023-03-25T00:57:52.299Z,6.88
2023-03-25T01:00:20.607Z,4.93
2023-03-25T01:02:54.358Z,4.40
2023-03-25T01:05:22.370Z,5.93
2023-03-25T01:07:52.116Z,3.50
2023-03-25T01:10:20.117Z,4.55
2023-03-25T01:12:48.566Z,5.28
2023-03-25T01:15:16.562Z,3.88
2023-03-25T01:17:44.566Z,5.25
2023-03-25T01:20:12.462Z,9.50
2023-03-25T01:22:40.530Z,5.38
2023-03-25T01:25:08.751Z,5.60
2023-03-25T01:27:36.494Z,3.15
2023-03-25T01:30:04.755Z,7.28
2023-03-25T01:32:32.599Z,6.55
2023-03-25T01:35:00.402Z,6.88
2023-03-25T01:37:29.669Z,4.45
2023-03-25T01:39:57.512Z,5.85
2023-03-25T01:42:25.424Z,4.18
2023-03-25T01:44:53.245Z,9.20
2023-03-25T01:47:21.159Z,5.65
2023-03-25T01:49:50.605Z,5.20
2023-03-25T01:52:25.937Z,3.70
2023-03-25T01:54:55.314Z,5.28
2023-03-25T01:57:26.075Z,5.32
2023-03-25T01:59:55.863Z,4.38
2023-03-25T02:02:36.858Z,7.55
2023-03-25T02:05:11.242Z,6.00
2023-03-25T02:07:43.182Z,12.13
2023-03-25T02:10:12.968Z,7.57
2023-03-25T02:12:41.806Z,5.30
2023-03-25T02:15:11.301Z,7.43
2023-03-25T02:17:57.213Z,4.57
2023-03-25T02:20:43.439Z,4.88
2023-03-25T02:23:42.616Z,6.97
2023-03-25T02:26:37.160Z,4.60
2023-03-25T02:29:13.890Z,3.65
2023-03-25T02:31:48.512Z,7.38
2023-03-25T02:34:49.088Z,5.25
2023-03-25T02:38:00.343Z,5.15
2023-03-25T02:40:41.140Z,3.83
2023-03-25T02:43:31.048Z,7.57
2023-03-25T02:46:04.535Z,7.80
2023-03-25T02:48:43.169Z,7.32
2023-03-25T02:51:21.101Z,4.80
2023-03-25T02:53:51.541Z,10.13
2023-03-25T02:56:23.090Z,7.65
2023-03-25T02:58:55.882Z,7.32
2023-03-25T03:01:27.073Z,3.97
2023-03-25T03:03:57.253Z,5.88
2023-03-25T03:06:25.696Z,11.48
2023-03-25T03:09:37.985Z,7.22
2023-03-25T03:12:36.574Z,7.43
2023-03-25T03:15:07.442Z,9.23
2023-03-25T03:18:00.888Z,5.95
2023-03-25T03:20:44.515Z,6.50
2023-03-25T03:26:00.187Z,8.23
2023-03-25T03:28:35.200Z,7.18
2023-03-25T03:31:48.732Z,8.52
2023-03-25T03:34:43.292Z,9.93
2023-03-25T03:37:37.761Z,6.30
2023-03-25T03:40:10.498Z,9.52
2023-03-25T03:42:44.585Z,11.50
2023-03-25T03:45:21.236Z,7.82
2023-03-25T03:47:54.640Z,5.43
2023-03-25T03:50:32.710Z,6.47
2023-03-25T03:53:09.778Z,4.85
2023-03-25T03:56:25.103Z,9.98
2023-03-25T03:58:59.693Z,8.05
2023-03-25T04:01:35.025Z,4.10
2023-03-25T04:04:11.069Z,16.58
2023-03-25T04:06:51.157Z,8.93
2023-03-25T04:09:34.846Z,9.13
2023-03-25T04:12:06.004Z,6.22
2023-03-25T04:14:33.996Z,8.85
2023-03-25T04:17:01.765Z,7.32
2023-03-25T04:19:29.547Z,6.72
2023-03-25T04:21:57.368Z,8.98
2023-03-25T04:24:25.304Z,8.98
2023-03-25T04:26:53.321Z,8.65
2023-03-25T04:29:21.149Z,3.83
2023-03-25T04:31:50.791Z,11.90
2023-03-25T04:34:20.714Z,11.05
2023-03-25T04:36:51.397Z,6.63
2023-03-25T04:39:22.724Z,7.80
2023-03-25T04:41:51.160Z,9.85
2023-03-25T04:44:19.062Z,7.22
2023-03-25T04:46:48.005Z,6.90
2023-03-25T04:49:21.450Z,7.10
2023-03-25T04:51:51.845Z,10.60
2023-03-25T04:54:21.233Z,8.75
2023-03-25T04:56:50.040Z,8.38
2023-03-25T04:59:24.476Z,9.23
2023-03-25T05:01:53.179Z,7.70
2023-03-25T05:04:21.767Z,10.50
2023-03-25T05:06:51.465Z,6.72
2023-03-25T05:09:24.274Z,13.70
2023-03-25T05:11:53.635Z,7.90
2023-03-25T05:14:22.324Z,7.57
2023-03-25T05:16:50.648Z,11.63
2023-03-25T05:19:19.256Z,12.70
2023-03-25T05:21:47.270Z,5.72
2023-03-25T05:24:15.126Z,9.95
2023-03-25T05:26:43.366Z,11.43
2023-03-25T05:29:14.395Z,10.07
2023-03-25T05:31:45.792Z,14.45
2023-03-25T05:34:17.502Z,7.97
2023-03-25T05:36:46.027Z,9.05
2023-03-25T05:39:14.079Z,8.05
2023-03-25T05:41:42.471Z,11.95
2023-03-25T05:44:14.908Z,6.20
2023-03-25T05:46:42.964Z,6.97
2023-03-25T05:49:10.864Z,13.68
2023-03-25T05:51:38.794Z,10.23
2023-03-25T05:54:11.750Z,8.60
2023-03-25T05:56:40.418Z,7.20
2023-03-25T05:59:09.217Z,6.43
2023-03-25T06:01:38.075Z,10.88
2023-03-25T06:04:10.490Z,10.27
2023-03-25T06:06:40.356Z,7.78
2023-03-25T06:09:08.573Z,7.78
2023-03-25T06:11:47.101Z,9.77
2023-03-25T06:14:15.039Z,9.10
2023-03-25T06:16:44.351Z,6.75
2023-03-25T06:19:12.211Z,5.78
2023-03-25T06:21:40.251Z,8.75
2023-03-25T06:24:08.637Z,6.82
2023-03-25T06:26:37.352Z,10.10
2023-03-25T06:29:05.312Z,9.88
2023-03-25T06:31:34.197Z,6.50
2023-03-25T06:34:03.069Z,10.25
2023-03-25T06:36:31.748Z,7.47
2023-03-25T06:38:59.684Z,6.28
2023-03-25T06:41:28.388Z,14.35
2023-03-25T06:44:24.973Z,10.50
2023-03-25T06:47:31.488Z,10.75
2023-03-25T06:49:59.632Z,7.72
2023-03-25T06:52:27.596Z,8.95
2023-03-25T06:54:55.796Z,6.40
2023-03-25T06:57:23.823Z,9.68
2023-03-25T06:59:51.715Z,9.60
2023-03-25T07:02:19.636Z,6.53
2023-03-25T07:04:47.568Z,8.00
2023-03-25T07:07:15.515Z,9.90
2023-03-25T07:09:43.376Z,7.65
2023-03-25T07:12:11.274Z,10.23
2023-03-25T07:14:39.198Z,8.05
2023-03-25T07:17:07.200Z,7.45
2023-03-25T07:19:35.074Z,8.50
2023-03-25T07:22:02.915Z,10.02
2023-03-25T07:24:30.828Z,10.82
2023-03-25T07:26:58.734Z,11.27
2023-03-25T07:29:28.816Z,12.65
2023-03-25T07:31:56.781Z,13.05
2023-03-25T07:34:25.106Z,9.63
2023-03-25T07:36:53.012Z,11.68
2023-03-25T07:39:22.115Z,10.40
2023-03-25T07:41:49.978Z,8.93
2023-03-25T07:44:29.306Z,15.45
2023-03-25T07:46:57.308Z,8.40
2023-03-25T07:49:25.364Z,11.70
2023-03-25T07:51:53.303Z,18.98
2023-03-25T07:54:22.932Z,18.67
2023-03-25T07:56:53.039Z,17.95
2023-03-25T07:59:20.999Z,18.10
2023-03-25T08:01:49.076Z,8.43
2023-03-25T08:04:17.076Z,10.40
2023-03-25T08:06:44.980Z,11.98
2023-03-25T08:09:13.072Z,23.52
2023-03-25T08:11:41.078Z,13.50
2023-03-25T08:14:09.392Z,11.70
2023-03-25T08:16:37.480Z,9.20
2023-03-25T08:19:05.531Z,13.60
2023-03-25T08:21:33.476Z,11.60
2023-03-25T08:24:05.001Z,13.93
2023-03-25T08:26:34.579Z,9.68
2023-03-25T08:29:02.987Z,14.05
2023-03-25T08:31:32.883Z,8.98
2023-03-25T08:34:02.524Z,9.90
2023-03-25T08:36:30.707Z,18.98
2023-03-25T08:38:58.607Z,8.98
2023-03-25T08:41:26.906Z,19.63
2023-03-25T08:43:54.781Z,11.00
2023-03-25T08:46:23.475Z,12.80
2023-03-25T08:48:51.504Z,11.48
2023-03-25T08:51:19.434Z,8.32
2023-03-25T08:53:47.611Z,19.55
2023-03-25T08:56:15.809Z,15.85
2023-03-25T08:58:43.852Z,11.07
2023-03-25T09:01:12.362Z,12.13
2023-03-25T09:03:42.451Z,10.45
2023-03-25T09:06:10.554Z,15.18
2023-03-25T09:08:38.456Z,9.80
2023-03-25T09:11:06.535Z,9.35
2023-03-25T09:13:34.373Z,13.63
2023-03-25T09:16:02.225Z,8.55
2023-03-25T09:18:32.215Z,7.88
2023-03-25T09:21:01.021Z,12.32
2023-03-25T09:23:29.110Z,9.27
2023-03-25T09:26:02.241Z,10.75
2023-03-25T09:28:30.473Z,18.33
2023-03-25T09:30:58.552Z,15.45
2023-03-25T09:33:27.841Z,10.20
2023-03-25T09:35:55.929Z,12.60
2023-03-25T09:38:23.820Z,11.20
2023-03-25T09:40:51.739Z,9.70
2023-03-25T09:44:12.453Z,15.45
2023-03-25T09:46:40.780Z,12.55
2023-03-25T09:49:18.122Z,17.45
2023-03-25T09:51:48.562Z,17.67
2023-03-25T09:54:26.147Z,10.63
2023-03-25T09:56:57.990Z,11.90
2023-03-25T09:59:49.752Z,14.65
2023-03-25T10:02:41.311Z,13.80
2023-03-25T10:05:15.732Z,10.95
2023-03-25T10:08:30.530Z,13.07
2023-03-25T10:11:07.710Z,14.52
2023-03-25T10:13:53.616Z,10.40
2023-03-25T10:16:33.652Z,10.15
2023-03-25T10:19:43.744Z,11.80
2023-03-25T10:22:26.043Z,14.70
2023-03-25T10:25:01.406Z,13.65
2023-03-25T10:27:57.749Z,7.82
2023-03-25T10:30:32.044Z,12.65
2023-03-25T10:33:05.117Z,15.75
2023-03-25T10:38:21.010Z,8.35
2023-03-25T10:40:51.880Z,7.50
2023-03-25T10:43:31.722Z,12.35
2023-03-25T10:46:16.831Z,14.30
2023-03-25T10:48:47.434Z,7.93
2023-03-25T10:51:29.296Z,9.60
2023-03-25T10:53:58.726Z,14.40
2023-03-25T10:56:41.339Z,6.55
2023-03-25T10:59:35.269Z,9.23
2023-03-25T11:02:27.277Z,12.10
2023-03-25T11:05:02.057Z,10.90
2023-03-25T11:07:41.909Z,5.28
2023-03-25T11:10:26.441Z,5.30
2023-03-25T11:12:57.144Z,7.57
2023-03-25T11:15:38.197Z,4.43
2023-03-25T11:18:15.715Z,7.85
2023-03-25T11:20:53.651Z,9.13
2023-03-25T11:23:36.723Z,7.40
2023-03-25T11:26:23.767Z,7.05
2023-03-25T11:29:12.327Z,4.80
2023-03-25T11:31:43.020Z,4.28
2023-03-25T11:34:10.847Z,14.70
2023-03-25T11:36:47.693Z,7.00
2023-03-25T11:39:30.588Z,10.25
2023-03-25T11:41:59.272Z,4.30
2023-03-25T11:44:33.321Z,7.60
2023-03-25T11:47:07.188Z,5.13
2023-03-25T11:49:38.743Z,5.82
2023-03-25T11:52:13.411Z,5.90
2023-03-25T11:54:43.114Z,15.65
2023-03-25T11:57:23.202Z,6.40
2023-03-25T12:00:02.143Z,2.38
2023-03-25T12:02:41.328Z,3.47
2023-03-25T12:05:15.044Z,1.58
2023-03-25T12:07:51.701Z,2.80
2023-03-25T12:10:49.973Z,1.63
2023-03-25T12:13:32.152Z,3.00
2023-03-25T12:16:16.447Z,3.63
2023-03-25T12:19:20.738Z,6.55
2023-03-25T12:22:07.109Z,1.55
2023-03-25T12:24:53.583Z,7.32
2023-03-25T12:27:59.644Z,4.55
2023-03-25T12:30:42.976Z,2.67
2023-03-25T12:33:22.495Z,7.07
2023-03-25T12:36:10.780Z,5.78
2023-03-25T12:39:04.451Z,1.02
2023-03-25T12:41:41.951Z,1.70
2023-03-25T12:44:31.038Z,2.47
2023-03-25T12:47:23.723Z,1.00
2023-03-25T12:49:54.138Z,1.65
2023-03-25T12:52:49.494Z,5.75
2023-03-25T12:55:30.739Z,4.10
2023-03-25T12:58:21.575Z,3.88
2023-03-25T13:01:01.645Z,4.43
2023-03-25T13:03:48.164Z,4.22
2023-03-25T13:06:40.850Z,3.28
2023-03-25T13:09:15.656Z,2.60
2023-03-25T13:11:49.921Z,3.72
2023-03-25T13:14:33.856Z,4.45
2023-03-25T13:17:09.396Z,4.20
2023-03-25T13:19:44.515Z,6.57
2023-03-25T13:22:25.351Z,2.38
2023-03-25T13:25:01.113Z,13.45
2023-03-25T13:27:36.271Z,7.55
2023-03-25T13:30:09.439Z,4.57
2023-03-25T13:32:48.372Z,2.10
2023-03-25T13:35:37.884Z,9.77
2023-03-25T13:38:16.413Z,3.75
2023-03-25T13:41:05.947Z,1.95
2023-03-25T13:43:47.729Z,2.85
2023-03-25T13:46:41.135Z,2.23
2023-03-25T13:49:48.672Z,6.45
2023-03-25T13:52:18.548Z,3.78
2023-03-25T13:54:59.891Z,3.85
2023-03-25T13:57:57.990Z,4.93
2023-03-25T14:01:21.850Z,2.72
2023-03-25T14:04:18.783Z,5.95
2023-03-25T14:07:17.541Z,4.03
2023-03-25T14:10:03.270Z,10.25
2023-03-25T14:12:39.956Z,8.20
2023-03-25T14:15:30.376Z,6.32
2023-03-25T14:18:00.341Z,5.68
2023-03-25T14:20:41.796Z,3.25
2023-03-25T14:23:18.583Z,3.60
2023-03-25T14:25:50.470Z,5.90
2023-03-25T14:28:31.833Z,9.40
2023-03-25T14:31:14.902Z,2.17
2023-03-25T14:34:04.097Z,2.35
2023-03-25T14:36:55.912Z,6.00
2023-03-25T14:39:29.613Z,3.83
2023-03-25T14:42:11.682Z,1.88
2023-03-25T14:44:50.116Z,1.92
2023-03-25T14:47:28.195Z,5.80
2023-03-25T14:50:05.293Z,2.70
2023-03-25T14:52:44.156Z,4.00
2023-03-25T14:55:28.304Z,2.65
2023-03-25T14:58:01.377Z,1.73
2023-03-25T15:00:34.437Z,0.88
2023-03-25T15:03:18.245Z,4.75
2023-03-25T15:05:56.606Z,2.58
2023-03-25T15:08:35.715Z,2.38
2023-03-25T15:11:12.864Z,5.82
2023-03-25T15:13:46.491Z,2.67
2023-03-25T15:16:39.944Z,3.75
2023-03-25T15:19:12.100Z,7.32
2023-03-25T15:22:11.087Z,0.98
2023-03-25T15:24:41.501Z,7.20
2023-03-25T15:27:42.263Z,4.10
2023-03-25T15:31:01.432Z,2.65
2023-03-25T15:33:51.213Z,1.42
2023-03-25T15:36:45.933Z,5.93
2023-03-25T15:39:36.034Z,2.72
2023-03-25T15:42:25.451Z,2.60
2023-03-25T15:45:26.434Z,0.60
2023-03-25T15:48:16.067Z,0.60
2023-03-25T15:51:01.821Z,1.73
2023-03-25T15:53:53.194Z,3.03
2023-03-25T15:56:26.543Z,3.03
2023-03-25T15:59:03.685Z,2.38
2023-03-25T16:01:39.486Z,3.13
2023-03-25T16:04:25.014Z,2.30
2023-03-25T16:06:56.874Z,1.80
2023-03-25T16:09:28.836Z,4.85
2023-03-25T16:12:02.395Z,5.47
2023-03-25T16:14:33.046Z,1.63
2023-03-25T16:17:03.515Z,5.45
2023-03-25T16:19:40.179Z,4.53
2023-03-25T16:22:18.277Z,4.47
2023-03-25T16:24:49.046Z,1.35
2023-03-25T16:27:38.056Z,1.67
2023-03-25T16:30:22.883Z,7.05
2023-03-25T16:32:51.460Z,3.35
2023-03-25T16:35:27.792Z,5.35
2023-03-25T16:37:58.727Z,1.90
2023-03-25T16:40:41.355Z,3.30
2023-03-25T16:43:35.940Z,5.90
2023-03-25T16:46:05.845Z,1.42
2023-03-25T16:48:39.978Z,1.70
2023-03-25T16:51:23.193Z,2.55
2023-03-25T16:56:30.453Z,1.80
2023-03-25T16:59:21.590Z,2.30
2023-03-25T17:01:59.851Z,2.88
2023-03-25T17:04:48.517Z,9.60
2023-03-25T17:07:21.204Z,1.95
2023-03-25T17:09:54.526Z,1.83
2023-03-25T17:12:24.894Z,0.40
2023-03-25T17:14:58.667Z,0.35
2023-03-25T17:17:41.844Z,1.10
2023-03-25T17:23:00.790Z,6.57
2023-03-25T17:25:36.905Z,5.82
2023-03-25T17:28:23.054Z,1.13
2023-03-25T17:30:51.395Z,0.93
2023-03-25T17:33:20.997Z,2.22
2023-03-25T17:35:55.618Z,2.92
2023-03-25T17:38:37.128Z,3.22
2023-03-25T17:41:08.324Z,2.67
2023-03-25T17:43:41.663Z,4.05
2023-03-25T17:46:10.801Z,5.60
2023-03-25T17:48:38.828Z,2.65
2023-03-25T17:51:07.193Z,3.72
2023-03-25T17:53:35.083Z,3.25
2023-03-25T17:56:03.816Z,1.83
2023-03-25T18:01:01.783Z,1.42
2023-03-25T18:03:32.367Z,4.60
2023-03-25T18:06:01.124Z,1.85
2023-03-25T18:08:30.055Z,2.88
2023-03-25T18:10:59.068Z,8.25
2023-03-25T18:13:28.073Z,4.47
2023-03-25T18:15:56.360Z,7.32
2023-03-25T18:18:26.505Z,4.35
2023-03-25T18:21:00.412Z,3.00
2023-03-25T18:23:28.610Z,6.13
2023-03-25T18:25:58.434Z,5.43
2023-03-25T18:28:26.505Z,2.38
2023-03-25T18:30:57.203Z,5.78
2023-03-25T18:33:25.845Z,4.45
2023-03-25T18:35:54.027Z,3.25
2023-03-25T18:38:27.398Z,3.55
2023-03-25T18:40:57.209Z,4.25
2023-03-25T18:43:25.297Z,3.88
2023-03-25T18:45:53.358Z,1.70
2023-03-25T18:48:22.302Z,3.75
2023-03-25T18:50:55.638Z,10.63
2023-03-25T18:53:28.989Z,31.15
2023-03-25T18:56:02.504Z,25.33
2023-03-25T18:58:33.143Z,28.45
2023-03-25T19:01:03.010Z,19.58
2023-03-25T19:03:31.667Z,15.63
2023-03-25T19:06:00.901Z,12.00
2023-03-25T19:08:28.972Z,13.75
2023-03-25T19:11:04.609Z,13.15
2023-03-25T19:13:40.862Z,13.73
2023-03-25T19:16:09.254Z,16.60
2023-03-25T19:18:37.189Z,19.38
2023-03-25T19:21:05.795Z,15.57
2023-03-25T19:23:35.444Z,18.50
2023-03-25T19:26:04.443Z,14.68
2023-03-25T19:28:32.503Z,18.63
2023-03-25T19:31:01.693Z,15.13
2023-03-25T19:33:31.786Z,16.75
2023-03-25T19:36:02.076Z,14.13
2023-03-25T19:38:33.181Z,17.38
2023-03-25T19:41:07.091Z,17.33
2023-03-25T19:43:36.122Z,15.82
2023-03-25T19:46:05.818Z,16.02
2023-03-25T19:48:34.690Z,14.50
2023-03-25T19:51:02.906Z,16.20
2023-03-25T19:53:31.174Z,15.60
2023-03-25T19:56:04.388Z,20.48
2023-03-25T20:01:00.732Z,18.35
2023-03-25T20:03:31.586Z,18.52
2023-03-25T20:06:01.118Z,18.98
2023-03-25T20:08:30.561Z,16.25
2023-03-25T20:10:58.620Z,16.50
2023-03-25T20:13:26.912Z,16.83
2023-03-25T20:15:55.073Z,22.20
2023-03-25T20:18:23.372Z,24.13
2023-03-25T20:20:51.777Z,15.45
2023-03-25T20:23:19.754Z,14.18
2023-03-25T20:25:47.811Z,18.67
2023-03-25T20:28:18.631Z,13.52
2023-03-25T20:30:46.843Z,15.52
2023-03-25T20:33:14.921Z,20.23
2023-03-25T20:35:44.257Z,16.50
2023-03-25T20:38:12.763Z,20.27
2023-03-25T20:40:44.597Z,20.30
2023-03-25T20:43:14.869Z,14.10
2023-03-25T20:45:43.911Z,19.92
2023-03-25T20:48:12.078Z,15.70
2023-03-25T20:50:40.768Z,13.95
2023-03-25T20:53:09.306Z,17.65
2023-03-25T20:55:37.573Z,18.08
2023-03-25T20:58:06.447Z,14.25
2023-03-25T21:00:34.896Z,16.52
2023-03-25T21:03:05.273Z,14.40
2023-03-25T21:05:33.766Z,14.70
2023-03-25T21:08:01.727Z,17.48
2023-03-25T21:10:29.698Z,14.13
2023-03-25T21:12:57.612Z,15.27
2023-03-25T21:15:25.542Z,15.52
2023-03-25T21:17:53.458Z,16.45
2023-03-25T21:20:27.248Z,16.08
2023-03-25T21:22:57.482Z,15.45
2023-03-25T21:25:34.280Z,15.95
2023-03-25T21:28:04.535Z,18.20
2023-03-25T21:30:32.728Z,16.92
2023-03-25T21:33:00.604Z,21.55
2023-03-25T21:35:28.718Z,15.60
2023-03-25T21:37:56.749Z,18.05
2023-03-25T21:40:24.997Z,15.55
2023-03-25T21:42:53.101Z,16.27
2023-03-25T21:45:21.021Z,17.67
2023-03-25T21:47:53.577Z,15.05
2023-03-25T21:50:22.012Z,13.85
2023-03-25T21:52:49.878Z,19.17
2023-03-25T21:55:17.904Z,19.77
2023-03-25T21:57:48.059Z,16.65
2023-03-25T22:00:18.087Z,17.48
2023-03-25T22:02:47.376Z,16.08
2023-03-25T22:05:17.449Z,21.05
2023-03-25T22:07:45.626Z,18.55
2023-03-25T22:10:13.641Z,15.63
2023-03-25T22:12:41.783Z,14.60
2023-03-25T22:15:10.514Z,16.88
2023-03-25T22:17:38.432Z,15.93
2023-03-25T22:20:07.136Z,14.90
2023-03-25T22:22:35.015Z,18.17
2023-03-25T22:25:04.256Z,16.35
2023-03-25T22:27:32.220Z,14.95
2023-03-25T22:30:01.747Z,19.13
2023-03-25T22:32:29.860Z,16.27
2023-03-25T22:34:58.431Z,18.42
2023-03-25T22:37:26.565Z,15.38
2023-03-25T22:39:54.510Z,16.42
2023-03-25T22:42:22.411Z,17.15
2023-03-25T22:44:50.506Z,18.27
2023-03-25T22:47:18.403Z,18.38
2023-03-25T22:49:46.322Z,18.38
2023-03-25T22:52:14.255Z,19.35
2023-03-25T22:54:42.178Z,16.00
2023-03-25T22:57:10.112Z,15.35
2023-03-25T22:59:39.368Z,16.95
2023-03-25T23:02:08.014Z,18.77
2023-03-25T23:04:35.864Z,17.67
2023-03-25T23:07:08.336Z,16.27
2023-03-25T23:09:44.123Z,16.05
2023-03-25T23:12:14.933Z,19.80
2023-03-25T23:14:49.822Z,17.40
2023-03-25T23:17:18.215Z,20.08
2023-03-25T23:19:47.557Z,17.27
2023-03-25T23:22:17.665Z,18.52
2023-03-25T23:24:46.157Z,18.65
2023-03-25T23:27:14.575Z,15.93
2023-03-25T23:29:42.642Z,17.33
2023-03-25T23:32:11.500Z,15.80
2023-03-25T23:34:40.466Z,17.58
2023-03-25T23:37:09.458Z,13.70
2023-03-25T23:39:37.649Z,20.00
2023-03-25T23:42:05.609Z,15.55
2023-03-25T23:44:34.543Z,17.02
2023-03-25T23:47:02.482Z,17.35
2023-03-25T23:49:33.448Z,24.05
2023-03-25T23:52:01.575Z,19.33
2023-03-25T23:54:29.435Z,20.63
2023-03-25T23:56:58.032Z,21.77
2023-03-25T23:59:26.044Z,19.67
